sensor_id;sensor_type;location;lat;lon;timestamp;P1;durP1;ratioP1;P2;durP2;ratioP2
17091;SDS011;8661;45.700;4.880;2023-10-09T00:01:41;8.20;;;4.10;;
17091;SDS011;8661;45.700;4.880;2023-10-09T00:04:09;12.43;;;4.30;;
17091;SDS011;8661;45.700;4.880;2023-10-09T00:06:37;14.07;;;4.80;;
17091;SDS011;8661;45.700;4.880;2023-10-09T00:09:04;12.30;;;4.70;;
17091;SDS011;8661;45.700;4.880;2023-10-09T00:11:44;10.07;;;4.37;;
17091;SDS011;8661;45.700;4.880;2023-10-09T00:14:14;9.93;;;4.23;;
17091;SDS011;8661;45.700;4.880;2023-10-09T00:16:43;12.37;;;4.27;;
17091;SDS011;8661;45.700;4.880;2023-10-09T00:19:13;9.73;;;4.43;;
17091;SDS011;8661;45.700;4.880;2023-10-09T00:21:42;9.20;;;4.50;;
17091;SDS011;8661;45.700;4.880;2023-10-09T00:24:10;11.50;;;4.67;;
17091;SDS011;8661;45.700;4.880;2023-10-09T00:26:48;9.60;;;4.63;;
17091;SDS011;8661;45.700;4.880;2023-10-09T00:29:17;11.13;;;5.00;;
17091;SDS011;8661;45.700;4.880;2023-10-09T00:31:48;11.93;;;4.57;;
17091;SDS011;8661;45.700;4.880;2023-10-09T00:34:19;12.77;;;5.20;;
17091;SDS011;8661;45.700;4.880;2023-10-09T00:36:47;9.80;;;4.80;;
17091;SDS011;8661;45.700;4.880;2023-10-09T00:39:19;11.40;;;4.57;;
17091;SDS011;8661;45.700;4.880;2023-10-09T00:42:05;9.77;;;4.60;;
17091;SDS011;8661;45.700;4.880;2023-10-09T00:44:34;9.30;;;4.43;;
17091;SDS011;8661;45.700;4.880;2023-10-09T00:47:07;10.93;;;4.80;;
17091;SDS011;8661;45.700;4.880;2023-10-09T00:49:56;11.67;;;4.37;;
17091;SDS011;8661;45.700;4.880;2023-10-09T00:52:29;11.83;;;4.30;;
17091;SDS011;8661;45.700;4.880;2023-10-09T00:55:02;11.27;;;4.73;;
17091;SDS011;8661;45.700;4.880;2023-10-09T00:57:39;9.50;;;4.63;;
17091;SDS011;8661;45.700;4.880;2023-10-09T01:00:09;9.63;;;4.70;;
17091;SDS011;8661;45.700;4.880;2023-10-09T01:02:54;12.67;;;5.53;;
17091;SDS011;8661;45.700;4.880;2023-10-09T01:05:36;9.97;;;4.70;;
17091;SDS011;8661;45.700;4.880;2023-10-09T01:08:10;8.43;;;4.53;;
17091;SDS011;8661;45.700;4.880;2023-10-09T01:10:50;10.77;;;5.07;;
17091;SDS011;8661;45.700;4.880;2023-10-09T01:13:21;11.20;;;4.77;;
17091;SDS011;8661;45.700;4.880;2023-10-09T01:15:54;11.47;;;4.60;;
17091;SDS011;8661;45.700;4.880;2023-10-09T01:18:24;8.97;;;4.67;;
17091;SDS011;8661;45.700;4.880;2023-10-09T01:21:01;8.03;;;4.33;;
17091;SDS011;8661;45.700;4.880;2023-10-09T01:23:30;12.70;;;4.50;;
17091;SDS011;8661;45.700;4.880;2023-10-09T01:25:57;12.10;;;4.80;;
17091;SDS011;8661;45.700;4.880;2023-10-09T01:28:24;8.40;;;4.50;;
17091;SDS011;8661;45.700;4.880;2023-10-09T01:30:53;11.00;;;5.03;;
17091;SDS011;8661;45.700;4.880;2023-10-09T01:33:20;8.27;;;4.60;;
17091;SDS011;8661;45.700;4.880;2023-10-09T01:35:49;9.90;;;4.60;;
17091;SDS011;8661;45.700;4.880;2023-10-09T01:38:23;11.47;;;5.53;;
17091;SDS011;8661;45.700;4.880;2023-10-09T01:41:07;11.20;;;4.70;;
17091;SDS011;8661;45.700;4.880;2023-10-09T01:43:41;11.00;;;4.53;;
17091;SDS011;8661;45.700;4.880;2023-10-09T01:46:09;13.33;;;5.63;;
17091;SDS011;8661;45.700;4.880;2023-10-09T01:48:37;11.17;;;4.80;;
17091;SDS011;8661;45.700;4.880;2023-10-09T01:51:08;10.47;;;4.53;;
17091;SDS011;8661;45.700;4.880;2023-10-09T01:53:42;9.10;;;4.77;;
17091;SDS011;8661;45.700;4.880;2023-10-09T01:56:11;8.70;;;4.60;;
17091;SDS011;8661;45.700;4.880;2023-10-09T01:58:41;9.47;;;5.27;;
17091;SDS011;8661;45.700;4.880;2023-10-09T02:01:12;12.17;;;5.20;;
17091;SDS011;8661;45.700;4.880;2023-10-09T02:03:40;8.50;;;4.67;;
17091;SDS011;8661;45.700;4.880;2023-10-09T02:06:08;8.50;;;4.70;;
17091;SDS011;8661;45.700;4.880;2023-10-09T02:08:52;11.13;;;4.90;;
17091;SDS011;8661;45.700;4.880;2023-10-09T02:11:22;13.53;;;5.17;;
17091;SDS011;8661;45.700;4.880;2023-10-09T02:14:04;8.07;;;4.73;;
17091;SDS011;8661;45.700;4.880;2023-10-09T02:16:44;12.70;;;4.90;;
17091;SDS011;8661;45.700;4.880;2023-10-09T02:19:27;13.57;;;5.10;;
17091;SDS011;8661;45.700;4.880;2023-10-09T02:22:00;10.50;;;4.60;;
17091;SDS011;8661;45.700;4.880;2023-10-09T02:24:39;8.90;;;4.70;;
17091;SDS011;8661;45.700;4.880;2023-10-09T02:27:26;10.93;;;4.83;;
17091;SDS011;8661;45.700;4.880;2023-10-09T02:30:07;10.87;;;4.60;;
17091;SDS011;8661;45.700;4.880;2023-10-09T02:32:41;8.37;;;4.80;;
17091;SDS011;8661;45.700;4.880;2023-10-09T02:35:10;13.47;;;5.43;;
17091;SDS011;8661;45.700;4.880;2023-10-09T02:37:53;13.03;;;4.90;;
17091;SDS011;8661;45.700;4.880;2023-10-09T02:40:20;10.97;;;4.37;;
17091;SDS011;8661;45.700;4.880;2023-10-09T02:42:54;10.87;;;4.47;;
17091;SDS011;8661;45.700;4.880;2023-10-09T02:45:21;12.30;;;4.80;;
17091;SDS011;8661;45.700;4.880;2023-10-09T02:47:53;8.00;;;4.90;;
17091;SDS011;8661;45.700;4.880;2023-10-09T02:50:24;10.27;;;5.47;;
17091;SDS011;8661;45.700;4.880;2023-10-09T02:52:53;14.17;;;5.80;;
17091;SDS011;8661;45.700;4.880;2023-10-09T02:55:26;12.97;;;5.60;;
17091;SDS011;8661;45.700;4.880;2023-10-09T02:57:55;11.03;;;4.87;;
17091;SDS011;8661;45.700;4.880;2023-10-09T03:00:32;10.10;;;4.60;;
17091;SDS011;8661;45.700;4.880;2023-10-09T03:03:02;9.90;;;4.70;;
17091;SDS011;8661;45.700;4.880;2023-10-09T03:05:32;8.53;;;4.73;;
17091;SDS011;8661;45.700;4.880;2023-10-09T03:08:07;11.00;;;4.80;;
17091;SDS011;8661;45.700;4.880;2023-10-09T03:10:37;10.23;;;4.90;;
17091;SDS011;8661;45.700;4.880;2023-10-09T03:13:06;7.07;;;4.50;;
17091;SDS011;8661;45.700;4.880;2023-10-09T03:15:34;11.60;;;4.50;;
17091;SDS011;8661;45.700;4.880;2023-10-09T03:18:02;10.80;;;4.27;;
17091;SDS011;8661;45.700;4.880;2023-10-09T03:20:31;13.57;;;4.93;;
17091;SDS011;8661;45.700;4.880;2023-10-09T03:22:58;10.40;;;5.17;;
17091;SDS011;8661;45.700;4.880;2023-10-09T03:25:26;10.03;;;4.67;;
17091;SDS011;8661;45.700;4.880;2023-10-09T03:27:54;10.57;;;4.83;;
17091;SDS011;8661;45.700;4.880;2023-10-09T03:30:25;10.53;;;5.23;;
17091;SDS011;8661;45.700;4.880;2023-10-09T03:32:53;11.77;;;4.57;;
17091;SDS011;8661;45.700;4.880;2023-10-09T03:35:21;10.97;;;5.47;;
17091;SDS011;8661;45.700;4.880;2023-10-09T03:37:53;10.53;;;5.30;;
17091;SDS011;8661;45.700;4.880;2023-10-09T03:40:22;9.10;;;4.60;;
17091;SDS011;8661;45.700;4.880;2023-10-09T03:42:50;11.70;;;5.63;;
17091;SDS011;8661;45.700;4.880;2023-10-09T03:45:18;12.27;;;6.70;;
17091;SDS011;8661;45.700;4.880;2023-10-09T03:47:55;20.03;;;6.10;;
17091;SDS011;8661;45.700;4.880;2023-10-09T03:50:27;12.67;;;5.40;;
17091;SDS011;8661;45.700;4.880;2023-10-09T03:53:01;12.90;;;6.37;;
17091;SDS011;8661;45.700;4.880;2023-10-09T03:55:32;16.80;;;5.80;;
17091;SDS011;8661;45.700;4.880;2023-10-09T03:57:59;15.13;;;6.23;;
17091;SDS011;8661;45.700;4.880;2023-10-09T04:00:27;15.43;;;6.23;;
17091;SDS011;8661;45.700;4.880;2023-10-09T04:02:58;11.30;;;5.27;;
17091;SDS011;8661;45.700;4.880;2023-10-09T04:05:25;10.80;;;5.57;;
17091;SDS011;8661;45.700;4.880;2023-10-09T04:07:54;14.83;;;6.70;;
17091;SDS011;8661;45.700;4.880;2023-10-09T04:10:23;13.30;;;5.90;;
17091;SDS011;8661;45.700;4.880;2023-10-09T04:13:09;15.83;;;6.83;;
17091;SDS011;8661;45.700;4.880;2023-10-09T04:15:41;13.87;;;5.90;;
17091;SDS011;8661;45.700;4.880;2023-10-09T04:18:10;15.40;;;6.17;;
17091;SDS011;8661;45.700;4.880;2023-10-09T04:20:42;15.00;;;5.23;;
17091;SDS011;8661;45.700;4.880;2023-10-09T04:23:40;12.57;;;5.80;;
17091;SDS011;8661;45.700;4.880;2023-10-09T04:26:24;11.43;;;5.73;;
17091;SDS011;8661;45.700;4.880;2023-10-09T04:28:51;12.33;;;5.30;;
17091;SDS011;8661;45.700;4.880;2023-10-09T04:31:19;9.00;;;5.40;;
17091;SDS011;8661;45.700;4.880;2023-10-09T04:33:48;12.40;;;5.73;;
17091;SDS011;8661;45.700;4.880;2023-10-09T04:36:23;13.27;;;5.63;;
17091;SDS011;8661;45.700;4.880;2023-10-09T04:38:54;11.70;;;5.57;;
17091;SDS011;8661;45.700;4.880;2023-10-09T04:41:41;13.37;;;6.40;;
17091;SDS011;8661;45.700;4.880;2023-10-09T04:44:24;13.63;;;5.50;;
17091;SDS011;8661;45.700;4.880;2023-10-09T04:47:01;13.63;;;5.37;;
17091;SDS011;8661;45.700;4.880;2023-10-09T04:49:52;10.03;;;5.53;;
17091;SDS011;8661;45.700;4.880;2023-10-09T04:52:27;16.33;;;6.90;;
17091;SDS011;8661;45.700;4.880;2023-10-09T04:55:13;9.80;;;5.30;;
17091;SDS011;8661;45.700;4.880;2023-10-09T04:57:44;23.03;;;7.03;;
17091;SDS011;8661;45.700;4.880;2023-10-09T05:00:25;17.20;;;6.87;;
17091;SDS011;8661;45.700;4.880;2023-10-09T05:03:12;19.73;;;7.57;;
17091;SDS011;8661;45.700;4.880;2023-10-09T05:05:51;12.57;;;6.30;;
17091;SDS011;8661;45.700;4.880;2023-10-09T05:08:25;17.27;;;7.30;;
17091;SDS011;8661;45.700;4.880;2023-10-09T05:10:57;13.40;;;5.93;;
17091;SDS011;8661;45.700;4.880;2023-10-09T05:13:40;15.63;;;6.50;;
17091;SDS011;8661;45.700;4.880;2023-10-09T05:16:10;10.70;;;6.03;;
17091;SDS011;8661;45.700;4.880;2023-10-09T05:18:41;21.50;;;7.17;;
17091;SDS011;8661;45.700;4.880;2023-10-09T05:21:11;11.83;;;6.53;;
17091;SDS011;8661;45.700;4.880;2023-10-09T05:24:01;13.53;;;6.13;;
17091;SDS011;8661;45.700;4.880;2023-10-09T05:26:45;12.87;;;6.07;;
17091;SDS011;8661;45.700;4.880;2023-10-09T05:29:39;18.13;;;7.33;;
17091;SDS011;8661;45.700;4.880;2023-10-09T05:32:24;16.80;;;6.43;;
17091;SDS011;8661;45.700;4.880;2023-10-09T05:34:55;10.53;;;6.07;;
17091;SDS011;8661;45.700;4.880;2023-10-09T05:37:34;15.27;;;6.90;;
17091;SDS011;8661;45.700;4.880;2023-10-09T05:40:08;18.70;;;6.63;;
17091;SDS011;8661;45.700;4.880;2023-10-09T05:42:48;10.57;;;5.83;;
17091;SDS011;8661;45.700;4.880;2023-10-09T05:45:24;14.63;;;6.43;;
17091;SDS011;8661;45.700;4.880;2023-10-09T05:48:09;14.73;;;6.80;;
17091;SDS011;8661;45.700;4.880;2023-10-09T05:50:54;13.53;;;6.73;;
17091;SDS011;8661;45.700;4.880;2023-10-09T05:54:00;21.43;;;5.67;;
17091;SDS011;8661;45.700;4.880;2023-10-09T05:56:44;12.73;;;6.47;;
17091;SDS011;8661;45.700;4.880;2023-10-09T05:59:55;18.00;;;6.37;;
17091;SDS011;8661;45.700;4.880;2023-10-09T06:02:39;21.77;;;6.93;;
17091;SDS011;8661;45.700;4.880;2023-10-09T06:05:24;11.07;;;6.07;;
17091;SDS011;8661;45.700;4.880;2023-10-09T06:08:27;13.10;;;6.53;;
17091;SDS011;8661;45.700;4.880;2023-10-09T06:11:26;10.93;;;6.00;;
17091;SDS011;8661;45.700;4.880;2023-10-09T06:14:04;14.47;;;6.63;;
17091;SDS011;8661;45.700;4.880;2023-10-09T06:16:38;16.13;;;6.07;;
17091;SDS011;8661;45.700;4.880;2023-10-09T06:19:06;12.30;;;6.30;;
17091;SDS011;8661;45.700;4.880;2023-10-09T06:21:38;13.67;;;6.37;;
17091;SDS011;8661;45.700;4.880;2023-10-09T06:24:06;17.57;;;7.17;;
17091;SDS011;8661;45.700;4.880;2023-10-09T06:26:43;22.90;;;7.17;;
17091;SDS011;8661;45.700;4.880;2023-10-09T06:29:37;14.83;;;6.37;;
17091;SDS011;8661;45.700;4.880;2023-10-09T06:32:16;12.67;;;6.33;;
17091;SDS011;8661;45.700;4.880;2023-10-09T06:34:59;15.80;;;6.77;;
17091;SDS011;8661;45.700;4.880;2023-10-09T06:37:44;13.53;;;7.03;;
17091;SDS011;8661;45.700;4.880;2023-10-09T06:40:29;12.57;;;6.83;;
17091;SDS011;8661;45.700;4.880;2023-10-09T06:43:15;18.73;;;7.40;;
17091;SDS011;8661;45.700;4.880;2023-10-09T06:45:52;13.57;;;7.17;;
17091;SDS011;8661;45.700;4.880;2023-10-09T06:48:22;13.87;;;6.37;;
17091;SDS011;8661;45.700;4.880;2023-10-09T06:51:21;14.47;;;6.70;;
17091;SDS011;8661;45.700;4.880;2023-10-09T06:54:06;12.77;;;6.80;;
17091;SDS011;8661;45.700;4.880;2023-10-09T06:56:34;16.97;;;7.30;;
17091;SDS011;8661;45.700;4.880;2023-10-09T06:59:20;15.43;;;7.73;;
17091;SDS011;8661;45.700;4.880;2023-10-09T07:01:49;23.47;;;8.10;;
17091;SDS011;8661;45.700;4.880;2023-10-09T07:04:30;15.63;;;8.23;;
17091;SDS011;8661;45.700;4.880;2023-10-09T07:07:26;13.33;;;6.33;;
17091;SDS011;8661;45.700;4.880;2023-10-09T07:10:00;16.00;;;6.73;;
17091;SDS011;8661;45.700;4.880;2023-10-09T07:12:44;18.13;;;7.20;;
17091;SDS011;8661;45.700;4.880;2023-10-09T07:15:18;14.00;;;7.33;;
17091;SDS011;8661;45.700;4.880;2023-10-09T07:18:01;14.50;;;6.77;;
17091;SDS011;8661;45.700;4.880;2023-10-09T07:20:44;13.23;;;6.37;;
17091;SDS011;8661;45.700;4.880;2023-10-09T07:23:25;19.57;;;9.13;;
17091;SDS011;8661;45.700;4.880;2023-10-09T07:26:01;18.93;;;9.87;;
17091;SDS011;8661;45.700;4.880;2023-10-09T07:28:43;19.00;;;7.90;;
17091;SDS011;8661;45.700;4.880;2023-10-09T07:31:16;16.30;;;8.00;;
17091;SDS011;8661;45.700;4.880;2023-10-09T07:33:49;16.87;;;9.17;;
17091;SDS011;8661;45.700;4.880;2023-10-09T07:36:22;18.67;;;9.90;;
17091;SDS011;8661;45.700;4.880;2023-10-09T07:39:04;20.00;;;8.60;;
17091;SDS011;8661;45.700;4.880;2023-10-09T07:41:40;16.63;;;9.77;;
17091;SDS011;8661;45.700;4.880;2023-10-09T07:44:20;19.10;;;8.97;;
17091;SDS011;8661;45.700;4.880;2023-10-09T07:47:02;23.43;;;11.07;;
17091;SDS011;8661;45.700;4.880;2023-10-09T07:49:48;21.73;;;11.13;;
17091;SDS011;8661;45.700;4.880;2023-10-09T07:52:18;23.37;;;10.60;;
17091;SDS011;8661;45.700;4.880;2023-10-09T07:54:52;27.30;;;11.00;;
17091;SDS011;8661;45.700;4.880;2023-10-09T07:57:27;23.27;;;9.83;;
17091;SDS011;8661;45.700;4.880;2023-10-09T08:00:03;22.40;;;10.20;;
17091;SDS011;8661;45.700;4.880;2023-10-09T08:02:37;17.97;;;9.37;;
17091;SDS011;8661;45.700;4.880;2023-10-09T08:05:04;20.90;;;9.77;;
17091;SDS011;8661;45.700;4.880;2023-10-09T08:07:44;21.37;;;9.10;;
17091;SDS011;8661;45.700;4.880;2023-10-09T08:10:21;18.23;;;9.70;;
17091;SDS011;8661;45.700;4.880;2023-10-09T08:13:05;22.90;;;8.63;;
17091;SDS011;8661;45.700;4.880;2023-10-09T08:16:01;21.87;;;8.57;;
17091;SDS011;8661;45.700;4.880;2023-10-09T08:18:42;22.30;;;9.60;;
17091;SDS011;8661;45.700;4.880;2023-10-09T08:21:10;21.10;;;8.67;;
17091;SDS011;8661;45.700;4.880;2023-10-09T08:24:07;22.77;;;8.97;;
17091;SDS011;8661;45.700;4.880;2023-10-09T08:26:53;29.17;;;9.07;;
17091;SDS011;8661;45.700;4.880;2023-10-09T08:29:40;16.07;;;8.10;;
17091;SDS011;8661;45.700;4.880;2023-10-09T08:32:13;16.83;;;7.10;;
17091;SDS011;8661;45.700;4.880;2023-10-09T08:35:03;11.97;;;6.10;;
17091;SDS011;8661;45.700;4.880;2023-10-09T08:37:44;11.03;;;5.13;;
17091;SDS011;8661;45.700;4.880;2023-10-09T08:40:13;13.70;;;5.57;;
17091;SDS011;8661;45.700;4.880;2023-10-09T08:42:43;9.33;;;5.20;;
17091;SDS011;8661;45.700;4.880;2023-10-09T08:45:15;14.13;;;5.03;;
17091;SDS011;8661;45.700;4.880;2023-10-09T08:47:51;11.47;;;5.03;;
17091;SDS011;8661;45.700;4.880;2023-10-09T08:50:20;11.37;;;4.90;;
17091;SDS011;8661;45.700;4.880;2023-10-09T08:52:47;14.17;;;5.70;;
17091;SDS011;8661;45.700;4.880;2023-10-09T08:55:16;12.03;;;4.73;;
17091;SDS011;8661;45.700;4.880;2023-10-09T08:57:43;17.27;;;4.73;;
17091;SDS011;8661;45.700;4.880;2023-10-09T09:00:16;11.87;;;4.70;;
17091;SDS011;8661;45.700;4.880;2023-10-09T09:02:46;10.83;;;4.63;;
17091;SDS011;8661;45.700;4.880;2023-10-09T09:05:17;14.17;;;6.07;;
17091;SDS011;8661;45.700;4.880;2023-10-09T09:07:45;10.10;;;5.10;;
17091;SDS011;8661;45.700;4.880;2023-10-09T09:10:13;15.23;;;5.83;;
17091;SDS011;8661;45.700;4.880;2023-10-09T09:12:43;14.27;;;5.80;;
17091;SDS011;8661;45.700;4.880;2023-10-09T09:15:13;19.03;;;6.77;;
17091;SDS011;8661;45.700;4.880;2023-10-09T09:17:45;16.27;;;5.50;;
17091;SDS011;8661;45.700;4.880;2023-10-09T09:20:20;13.33;;;5.30;;
17091;SDS011;8661;45.700;4.880;2023-10-09T09:22:54;9.53;;;5.07;;
17091;SDS011;8661;45.700;4.880;2023-10-09T09:25:22;13.10;;;4.93;;
17091;SDS011;8661;45.700;4.880;2023-10-09T09:27:51;11.33;;;4.87;;
17091;SDS011;8661;45.700;4.880;2023-10-09T09:30:23;11.57;;;4.23;;
17091;SDS011;8661;45.700;4.880;2023-10-09T09:32:56;9.23;;;4.90;;
17091;SDS011;8661;45.700;4.880;2023-10-09T09:35:38;8.27;;;4.27;;
17091;SDS011;8661;45.700;4.880;2023-10-09T09:38:08;7.40;;;4.17;;
17091;SDS011;8661;45.700;4.880;2023-10-09T09:40:42;6.83;;;4.20;;
17091;SDS011;8661;45.700;4.880;2023-10-09T09:43:10;12.23;;;4.67;;
17091;SDS011;8661;45.700;4.880;2023-10-09T09:45:46;8.17;;;4.17;;
17091;SDS011;8661;45.700;4.880;2023-10-09T09:48:14;10.93;;;4.43;;
17091;SDS011;8661;45.700;4.880;2023-10-09T09:50:43;11.80;;;4.37;;
17091;SDS011;8661;45.700;4.880;2023-10-09T09:53:12;8.87;;;4.03;;
17091;SDS011;8661;45.700;4.880;2023-10-09T09:55:44;15.13;;;4.23;;
17091;SDS011;8661;45.700;4.880;2023-10-09T09:58:21;7.63;;;4.60;;
17091;SDS011;8661;45.700;4.880;2023-10-09T10:00:53;10.37;;;4.30;;
17091;SDS011;8661;45.700;4.880;2023-10-09T10:03:26;12.10;;;4.30;;
17091;SDS011;8661;45.700;4.880;2023-10-09T10:05:59;9.50;;;4.63;;
17091;SDS011;8661;45.700;4.880;2023-10-09T10:08:30;9.60;;;4.27;;
17091;SDS011;8661;45.700;4.880;2023-10-09T10:10:58;9.93;;;4.73;;
17091;SDS011;8661;45.700;4.880;2023-10-09T10:16:29;9.47;;;3.77;;
17091;SDS011;8661;45.700;4.880;2023-10-09T10:19:01;8.07;;;4.13;;
17091;SDS011;8661;45.700;4.880;2023-10-09T10:21:49;10.50;;;4.23;;
17091;SDS011;8661;45.700;4.880;2023-10-09T10:27:19;6.53;;;3.60;;
17091;SDS011;8661;45.700;4.880;2023-10-09T10:33:08;8.97;;;4.03;;
17091;SDS011;8661;45.700;4.880;2023-10-09T10:35:37;15.33;;;4.10;;
17091;SDS011;8661;45.700;4.880;2023-10-09T10:38:28;11.53;;;4.20;;
17091;SDS011;8661;45.700;4.880;2023-10-09T10:41:13;11.95;;;4.43;;
17091;SDS011;8661;45.700;4.880;2023-10-09T10:43:42;9.63;;;4.20;;
17091;SDS011;8661;45.700;4.880;2023-10-09T10:49:16;6.75;;;3.78;;
17091;SDS011;8661;45.700;4.880;2023-10-09T10:51:46;10.57;;;4.32;;
17091;SDS011;8661;45.700;4.880;2023-10-09T10:54:21;6.97;;;3.97;;
17091;SDS011;8661;45.700;4.880;2023-10-09T10:57:15;10.13;;;3.95;;
17091;SDS011;8661;45.700;4.880;2023-10-09T11:00:18;9.45;;;3.63;;
17091;SDS011;8661;45.700;4.880;2023-10-09T11:02:58;11.07;;;4.55;;
17091;SDS011;8661;45.700;4.880;2023-10-09T11:05:39;9.10;;;4.47;;
17091;SDS011;8661;45.700;4.880;2023-10-09T11:08:09;8.65;;;3.67;;
17091;SDS011;8661;45.700;4.880;2023-10-09T11:10:37;8.95;;;3.90;;
17091;SDS011;8661;45.700;4.880;2023-10-09T11:13:20;9.98;;;4.45;;
17091;SDS011;8661;45.700;4.880;2023-10-09T11:15:58;8.50;;;3.95;;
17091;SDS011;8661;45.700;4.880;2023-10-09T11:18:39;7.78;;;4.10;;
17091;SDS011;8661;45.700;4.880;2023-10-09T11:21:12;11.20;;;4.20;;
17091;SDS011;8661;45.700;4.880;2023-10-09T11:23:56;8.43;;;4.45;;
17091;SDS011;8661;45.700;4.880;2023-10-09T11:26:46;6.40;;;4.00;;
17091;SDS011;8661;45.700;4.880;2023-10-09T11:29:19;8.82;;;4.43;;
17091;SDS011;8661;45.700;4.880;2023-10-09T11:31:57;8.60;;;3.85;;
17091;SDS011;8661;45.700;4.880;2023-10-09T11:34:25;13.70;;;4.50;;
17091;SDS011;8661;45.700;4.880;2023-10-09T11:36:57;11.45;;;4.47;;
17091;SDS011;8661;45.700;4.880;2023-10-09T11:39:25;17.25;;;4.38;;
17091;SDS011;8661;45.700;4.880;2023-10-09T11:42:03;9.60;;;4.10;;
17091;SDS011;8661;45.700;4.880;2023-10-09T11:44:37;8.20;;;3.85;;
17091;SDS011;8661;45.700;4.880;2023-10-09T11:47:06;11.02;;;4.50;;
17091;SDS011;8661;45.700;4.880;2023-10-09T11:49:50;7.63;;;3.75;;
17091;SDS011;8661;45.700;4.880;2023-10-09T11:52:41;7.97;;;3.75;;
17091;SDS011;8661;45.700;4.880;2023-10-09T11:55:33;7.05;;;4.03;;
17091;SDS011;8661;45.700;4.880;2023-10-09T11:58:02;12.02;;;4.53;;
17091;SDS011;8661;45.700;4.880;2023-10-09T12:00:31;10.88;;;3.97;;
17091;SDS011;8661;45.700;4.880;2023-10-09T12:03:09;8.35;;;3.67;;
17091;SDS011;8661;45.700;4.880;2023-10-09T12:05:38;10.95;;;4.25;;
17091;SDS011;8661;45.700;4.880;2023-10-09T12:08:09;10.63;;;3.83;;
17091;SDS011;8661;45.700;4.880;2023-10-09T12:10:39;8.18;;;3.78;;
17091;SDS011;8661;45.700;4.880;2023-10-09T12:13:07;10.98;;;3.90;;
17091;SDS011;8661;45.700;4.880;2023-10-09T12:15:34;6.82;;;3.60;;
17091;SDS011;8661;45.700;4.880;2023-10-09T12:18:04;12.50;;;4.60;;
17091;SDS011;8661;45.700;4.880;2023-10-09T12:20:34;14.57;;;4.03;;
17091;SDS011;8661;45.700;4.880;2023-10-09T12:23:01;13.20;;;4.22;;
17091;SDS011;8661;45.700;4.880;2023-10-09T12:25:30;8.40;;;3.85;;
17091;SDS011;8661;45.700;4.880;2023-10-09T12:27:58;15.55;;;4.85;;
17091;SDS011;8661;45.700;4.880;2023-10-09T12:30:28;12.55;;;4.22;;
17091;SDS011;8661;45.700;4.880;2023-10-09T12:32:55;9.38;;;3.75;;
17091;SDS011;8661;45.700;4.880;2023-10-09T12:35:23;11.43;;;3.53;;
17091;SDS011;8661;45.700;4.880;2023-10-09T12:37:53;7.90;;;3.90;;
17091;SDS011;8661;45.700;4.880;2023-10-09T12:40:20;13.65;;;4.10;;
17091;SDS011;8661;45.700;4.880;2023-10-09T12:42:56;11.90;;;4.40;;
17091;SDS011;8661;45.700;4.880;2023-10-09T12:45:25;9.93;;;4.00;;
17091;SDS011;8661;45.700;4.880;2023-10-09T12:47:54;11.27;;;3.85;;
17091;SDS011;8661;45.700;4.880;2023-10-09T12:50:24;15.25;;;4.07;;
17091;SDS011;8661;45.700;4.880;2023-10-09T12:52:54;14.60;;;4.20;;
17091;SDS011;8661;45.700;4.880;2023-10-09T12:55:21;12.40;;;4.30;;
17091;SDS011;8661;45.700;4.880;2023-10-09T12:57:57;14.77;;;4.30;;
17091;SDS011;8661;45.700;4.880;2023-10-09T13:00:31;12.70;;;3.58;;
17091;SDS011;8661;45.700;4.880;2023-10-09T13:03:00;16.60;;;4.20;;
17091;SDS011;8661;45.700;4.880;2023-10-09T13:05:27;16.98;;;4.28;;
17091;SDS011;8661;45.700;4.880;2023-10-09T13:07:54;10.45;;;3.55;;
17091;SDS011;8661;45.700;4.880;2023-10-09T13:10:23;9.63;;;3.58;;
17091;SDS011;8661;45.700;4.880;2023-10-09T13:12:50;12.55;;;4.38;;
17091;SDS011;8661;45.700;4.880;2023-10-09T13:15:21;13.45;;;4.50;;
17091;SDS011;8661;45.700;4.880;2023-10-09T13:17:48;10.05;;;3.58;;
17091;SDS011;8661;45.700;4.880;2023-10-09T13:20:19;11.32;;;3.53;;
17091;SDS011;8661;45.700;4.880;2023-10-09T13:22:46;11.00;;;3.65;;
17091;SDS011;8661;45.700;4.880;2023-10-09T13:25:14;13.43;;;4.25;;
17091;SDS011;8661;45.700;4.880;2023-10-09T13:27:42;17.23;;;4.13;;
17091;SDS011;8661;45.700;4.880;2023-10-09T13:30:16;19.90;;;3.60;;
17091;SDS011;8661;45.700;4.880;2023-10-09T13:32:48;13.25;;;3.80;;
17091;SDS011;8661;45.700;4.880;2023-10-09T13:35:16;15.85;;;4.80;;
17091;SDS011;8661;45.700;4.880;2023-10-09T13:37:45;17.13;;;3.85;;
17091;SDS011;8661;45.700;4.880;2023-10-09T13:40:20;10.15;;;3.67;;
17091;SDS011;8661;45.700;4.880;2023-10-09T13:42:53;10.52;;;4.22;;
17091;SDS011;8661;45.700;4.880;2023-10-09T13:45:24;10.25;;;3.67;;
17091;SDS011;8661;45.700;4.880;2023-10-09T13:47:53;9.13;;;3.58;;
17091;SDS011;8661;45.700;4.880;2023-10-09T13:50:23;14.93;;;4.15;;
17091;SDS011;8661;45.700;4.880;2023-10-09T13:52:55;10.73;;;3.65;;
17091;SDS011;8661;45.700;4.880;2023-10-09T13:55:25;11.85;;;3.55;;
17091;SDS011;8661;45.700;4.880;2023-10-09T13:57:56;11.95;;;3.72;;
17091;SDS011;8661;45.700;4.880;2023-10-09T14:00:23;11.73;;;3.35;;
17091;SDS011;8661;45.700;4.880;2023-10-09T14:02:59;7.30;;;3.35;;
17091;SDS011;8661;45.700;4.880;2023-10-09T14:05:36;14.88;;;3.75;;
17091;SDS011;8661;45.700;4.880;2023-10-09T14:08:18;14.25;;;4.45;;
17091;SDS011;8661;45.700;4.880;2023-10-09T14:10:47;12.00;;;3.38;;
17091;SDS011;8661;45.700;4.880;2023-10-09T14:13:14;9.15;;;3.35;;
17091;SDS011;8661;45.700;4.880;2023-10-09T14:15:41;9.68;;;3.90;;
17091;SDS011;8661;45.700;4.880;2023-10-09T14:18:11;9.32;;;3.45;;
17091;SDS011;8661;45.700;4.880;2023-10-09T14:20:38;11.00;;;3.75;;
17091;SDS011;8661;45.700;4.880;2023-10-09T14:23:06;10.85;;;3.92;;
17091;SDS011;8661;45.700;4.880;2023-10-09T14:25:38;14.13;;;3.97;;
17091;SDS011;8661;45.700;4.880;2023-10-09T14:28:06;10.40;;;3.85;;
17091;SDS011;8661;45.700;4.880;2023-10-09T14:30:34;12.07;;;3.78;;
17091;SDS011;8661;45.700;4.880;2023-10-09T14:33:07;11.88;;;3.70;;
17091;SDS011;8661;45.700;4.880;2023-10-09T14:35:38;13.30;;;3.70;;
17091;SDS011;8661;45.700;4.880;2023-10-09T14:38:05;13.50;;;3.47;;
17091;SDS011;8661;45.700;4.880;2023-10-09T14:40:36;17.10;;;3.88;;
17091;SDS011;8661;45.700;4.880;2023-10-09T14:43:09;9.45;;;3.60;;
17091;SDS011;8661;45.700;4.880;2023-10-09T14:45:44;15.18;;;3.63;;
17091;SDS011;8661;45.700;4.880;2023-10-09T14:48:13;24.60;;;4.55;;
17091;SDS011;8661;45.700;4.880;2023-10-09T14:50:46;12.50;;;4.07;;
17091;SDS011;8661;45.700;4.880;2023-10-09T14:53:14;13.65;;;4.07;;
17091;SDS011;8661;45.700;4.880;2023-10-09T14:55:43;14.88;;;4.43;;
17091;SDS011;8661;45.700;4.880;2023-10-09T14:58:11;11.93;;;3.75;;
17091;SDS011;8661;45.700;4.880;2023-10-09T15:00:38;10.75;;;4.05;;
17091;SDS011;8661;45.700;4.880;2023-10-09T15:03:11;9.35;;;3.63;;
17091;SDS011;8661;45.700;4.880;2023-10-09T15:05:40;18.38;;;4.22;;
17091;SDS011;8661;45.700;4.880;2023-10-09T15:08:08;15.30;;;3.80;;
17091;SDS011;8661;45.700;4.880;2023-10-09T15:10:43;20.85;;;4.28;;
17091;SDS011;8661;45.700;4.880;2023-10-09T15:13:12;15.65;;;4.43;;
17091;SDS011;8661;45.700;4.880;2023-10-09T15:15:41;13.27;;;3.45;;
17091;SDS011;8661;45.700;4.880;2023-10-09T15:18:08;18.95;;;4.38;;
17091;SDS011;8661;45.700;4.880;2023-10-09T15:20:38;16.17;;;3.72;;
17091;SDS011;8661;45.700;4.880;2023-10-09T15:23:06;16.20;;;4.30;;
17091;SDS011;8661;45.700;4.880;2023-10-09T15:25:33;11.48;;;3.58;;
17091;SDS011;8661;45.700;4.880;2023-10-09T15:28:05;11.68;;;4.38;;
17091;SDS011;8661;45.700;4.880;2023-10-09T15:30:34;11.75;;;4.00;;
17091;SDS011;8661;45.700;4.880;2023-10-09T15:33:03;10.77;;;3.45;;
17091;SDS011;8661;45.700;4.880;2023-10-09T15:35:30;17.23;;;3.70;;
17091;SDS011;8661;45.700;4.880;2023-10-09T15:37:59;12.55;;;3.75;;
17091;SDS011;8661;45.700;4.880;2023-10-09T15:40:28;19.02;;;4.13;;
17091;SDS011;8661;45.700;4.880;2023-10-09T15:42:58;12.77;;;3.28;;
17091;SDS011;8661;45.700;4.880;2023-10-09T15:45:27;17.50;;;3.72;;